METAR

Station
VRMM
METAR VRMM 021400Z 20005KT 9999 FEW018 FEW019CB BKN270 29/25 Q1013 CB WNW NOSIG=
VRMH
METAR VRMH 021400Z 23005KT 9999 FEW018TCU BKN120 28/25 Q1012=
VRMK
METAR VRMK 021400Z 13003KT 9999 FEW018TCU BKN130 28/25 Q1013=
VRMT
METAR VRMT 021400Z 12004KT 9999 FEW017TCU BKN120 28/25 Q1012=
VRMG
METAR VRMG 021300Z 11006KT 9999 FEW017TCU SCT110 OVC250 27/24 Q1012 NOSIG=
Last Updated : 2021-08-02 18:03:27

SPECI

Station
VRMM
VRMH
VRMK
VRMT
VRMG
Last Updated : 2021-08-02 18:03:27